Time;durP1;ratioP1;P1;durP2;ratioP2;P2;SDS_P1;SDS_P2;PMS_P1;PMS_P2;Temp;Humidity;BMP_temperature;BMP_pressure;BME280_temperature;BME280_humidity;BME280_pressure;Samples;Min_cycle;Max_cycle;Signal;HPM_P1;HPM_P2
2022/11/07 00:01:45;;;;;;;53.50;36.10;;;;;;;6.76;100.00;98970.44;106338;1285;58977;-78
2022/11/07 00:04:12;;;;;;;51.20;34.50;;;;;;;6.76;100.00;98971.85;106383;1282;59183;-78
2022/11/07 00:06:39;;;;;;;60.20;37.90;;;;;;;6.77;100.00;98977.09;106369;1278;66760;-78
2022/11/07 00:09:06;;;;;;;61.10;36.50;;;;;;;6.79;100.00;98976.11;106332;1285;60047;-78
2022/11/07 00:11:32;;;;;;;64.50;37.90;;;;;;;6.83;100.00;98966.95;106323;1286;72278;-77
2022/11/07 00:13:59;;;;;;;54.40;34.90;;;;;;;6.85;100.00;98972.98;106037;1295;58884;-78
2022/11/07 00:16:27;;;;;;;60.00;37.00;;;;;;;6.87;100.00;98973.05;106345;1285;59157;-78
2022/11/07 00:18:54;;;;;;;56.00;36.20;;;;;;;6.90;100.00;98973.27;106252;1284;65753;-77
2022/11/07 00:21:21;;;;;;;54.60;35.20;;;;;;;6.93;100.00;98977.36;106366;1285;59703;-78
2022/11/07 00:23:47;;;;;;;58.60;36.70;;;;;;;6.96;100.00;98969.77;106342;1283;63762;-79
2022/11/07 00:26:14;;;;;;;61.00;39.20;;;;;;;6.99;100.00;98965.89;106056;1287;58928;-78
2022/11/07 00:28:42;;;;;;;68.20;40.80;;;;;;;7.02;100.00;98962.91;106326;1278;58824;-78
2022/11/07 00:31:11;;;;;;;61.10;40.70;;;;;;;7.04;100.00;98959.42;106311;1285;66757;-78
2022/11/07 00:33:38;;;;;;;63.40;39.40;;;;;;;7.06;100.00;98958.48;106300;1289;59641;-78
2022/11/07 00:36:05;;;;;;;59.00;38.60;;;;;;;7.07;100.00;98957.73;106328;1285;63971;-78
2022/11/07 00:38:32;;;;;;;63.70;42.50;;;;;;;7.07;100.00;98951.54;106100;1293;58906;-78
2022/11/07 00:41:01;;;;;;;68.00;40.10;;;;;;;7.09;100.00;98952.63;106341;1285;58900;-78
2022/11/07 00:43:29;;;;;;;66.90;40.90;;;;;;;7.10;100.00;98952.77;106265;1292;66242;-78
2022/11/07 00:45:56;;;;;;;56.40;39.40;;;;;;;7.10;100.00;98951.17;106358;1284;60797;-78
2022/11/07 00:48:23;;;;;;;59.40;38.00;;;;;;;7.10;100.00;98949.80;106345;1286;64867;-77
2022/11/07 00:50:49;;;;;;;55.50;38.30;;;;;;;7.08;100.00;98950.58;106342;1286;58914;-79
2022/11/07 00:53:16;;;;;;;59.80;39.50;;;;;;;7.08;100.00;98950.94;106058;1292;58975;-77
2022/11/07 00:55:43;;;;;;;62.80;39.30;;;;;;;7.09;100.00;98954.22;106118;1287;65788;-77
2022/11/07 00:58:10;;;;;;;56.90;37.70;;;;;;;7.11;100.00;98958.02;106334;1282;59114;-77
2022/11/07 01:00:36;;;;;;;57.60;37.70;;;;;;;7.13;100.00;98953.87;106341;1285;63737;-77
2022/11/07 01:06:01;;;;;;;61.10;39.60;;;;;;;7.17;100.00;98946.17;106330;1285;58857;-77
2022/11/07 01:08:28;;;;;;;58.30;39.20;;;;;;;7.19;100.00;98941.51;106343;1286;66893;-77
2022/11/07 01:10:56;;;;;;;64.20;40.50;;;;;;;7.20;100.00;98940.38;106350;1286;59922;-77
2022/11/07 01:13:24;;;;;;;65.10;39.00;;;;;;;7.22;100.00;98935.33;106353;1284;64761;-78
2022/11/07 01:15:51;;;;;;;63.00;40.20;;;;;;;7.23;100.00;98930.85;106349;1286;58908;-77
2022/11/07 01:18:19;;;;;;;61.10;38.10;;;;;;;7.24;100.00;98929.23;106109;1288;59057;-77
2022/11/07 01:20:45;;;;;;;63.80;40.00;;;;;;;7.23;100.00;98929.10;106344;1282;67144;-77
2022/11/07 01:23:12;;;;;;;63.10;42.10;;;;;;;7.23;100.00;98929.95;106347;1285;60868;-77
2022/11/07 01:25:39;;;;;;;61.10;40.10;;;;;;;7.24;100.00;98931.52;106354;1290;73681;-77
2022/11/07 01:28:06;;;;;;;59.90;40.90;;;;;;;7.23;100.00;98920.59;106326;1278;59063;-78
2022/11/07 01:30:37;;;;;;;68.40;40.60;;;;;;;7.22;100.00;98923.83;106338;1285;58780;-78
2022/11/07 01:33:03;;;;;;;61.70;40.80;;;;;;;7.20;100.00;98920.59;106324;1286;66866;-78
2022/11/07 01:35:31;;;;;;;61.50;41.50;;;;;;;7.19;100.00;98921.03;106040;1284;59771;-78
2022/11/07 01:37:58;;;;;;;60.00;38.90;;;;;;;7.19;100.00;98924.23;106334;1284;64889;-77
2022/11/07 01:40:25;;;;;;;63.90;41.70;;;;;;;7.18;100.00;98924.23;106350;1286;58953;-77
2022/11/07 01:42:53;;;;;;;69.40;45.00;;;;;;;7.19;100.00;98918.91;106374;1285;58704;-77
2022/11/07 01:45:26;;;;;;;63.10;43.60;;;;;;;7.20;100.00;98914.44;106347;1285;66084;-78
2022/11/07 01:47:56;;;;;;;64.60;41.90;;;;;;;7.21;100.00;98908.20;106084;1281;61613;-76
2022/11/07 01:50:23;;;;;;;;;;;;;;;7.23;100.00;98910.91;106044;1288;64786;-77
2022/11/07 01:52:54;;;;;;;58.40;40.00;;;;;;;7.24;100.00;98910.33;106066;1287;58967;-76
2022/11/07 01:55:25;;;;;;;58.40;36.80;;;;;;;7.25;100.00;98911.35;105944;1291;59163;-77
2022/11/07 01:58:01;;;;;;;53.60;37.30;;;;;;;7.27;100.00;98908.40;105873;1289;66785;-77
2022/11/07 02:00:29;;;;;;;55.80;37.10;;;;;;;7.30;100.00;98911.27;105873;1287;59848;-77
2022/11/07 02:03:01;;;;;;;51.80;36.50;;;;;;;7.32;100.00;98907.27;106027;1289;64249;-77
2022/11/07 02:05:35;;;;;;;57.40;36.70;;;;;;;7.33;100.00;98900.63;106041;1289;59092;-77
2022/11/07 02:08:06;;;;;;;54.20;35.90;;;;;;;7.35;100.00;98898.59;106062;1289;58973;-77
2022/11/07 02:10:37;;;;;;;52.30;34.30;;;;;;;7.37;100.00;98897.23;106044;1295;65792;-77
2022/11/07 02:13:04;;;;;;;51.30;33.30;;;;;;;7.39;100.00;98897.13;106052;1281;61206;-77
2022/11/07 02:15:33;;;;;;;51.90;33.90;;;;;;;7.40;100.00;98894.05;106024;1289;71682;-77
2022/11/07 02:18:01;;;;;;;51.10;34.60;;;;;;;7.41;100.00;98895.77;106042;1287;58910;-77
2022/11/07 02:20:28;;;;;;;55.60;35.90;;;;;;;7.43;100.00;98893.92;106065;1289;59000;-77
2022/11/07 02:23:30;;;;;;;51.10;34.40;;;;;;;7.44;100.00;98892.77;106357;1285;67194;-77
2022/11/07 02:25:56;;;;;;;52.30;34.60;;;;;;;7.45;100.00;98888.10;105775;1290;60849;-77
2022/11/07 02:28:26;;;;;;;54.70;33.40;;;;;;;7.47;100.00;98889.08;105791;1289;62364;-77
2022/11/07 02:30:53;;;;;;;53.20;36.30;;;;;;;7.48;100.00;98885.69;105615;1295;58895;-77
2022/11/07 02:33:22;;;;;;;41.00;30.60;;;;;;;7.50;100.00;98880.30;105817;1285;58806;-77
2022/11/07 02:35:51;;;;;;;49.60;34.50;;;;;;;7.51;100.00;98877.73;105774;1292;66805;-77
2022/11/07 02:38:22;;;;;;;50.20;33.20;;;;;;;7.52;100.00;98873.44;105767;1292;59722;-77
2022/11/07 02:40:54;;;;;;;46.00;31.30;;;;;;;7.53;100.00;98866.86;105768;1292;63862;-77
2022/11/07 02:43:25;;;;;;;44.10;31.70;;;;;;;7.53;100.00;98863.30;105771;1292;58980;-77
2022/11/07 02:45:53;;;;;;;47.00;31.80;;;;;;;7.53;100.00;98861.52;105792;1292;58989;-77
2022/11/07 02:48:20;;;;;;;46.10;31.00;;;;;;;7.54;100.00;98858.66;105780;1291;66929;-78
2022/11/07 02:50:47;;;;;;;41.80;29.90;;;;;;;7.54;100.00;98855.30;105763;1294;60786;-77
2022/11/07 02:53:13;;;;;;;42.00;28.60;;;;;;;7.54;100.00;98849.45;105747;1290;64763;-77
2022/11/07 02:55:40;;;;;;;43.50;30.20;;;;;;;7.54;100.00;98850.85;105772;1291;59032;-77
2022/11/07 02:58:06;;;;;;;45.00;30.50;;;;;;;7.55;100.00;98851.88;105787;1292;58854;-76
2022/11/07 03:00:33;;;;;;;44.10;30.50;;;;;;;7.55;100.00;98848.66;105848;1293;66269;-76
2022/11/07 03:03:00;;;;;;;42.00;30.10;;;;;;;7.57;100.00;98852.11;106363;1285;60307;-77
2022/11/07 03:05:26;;;;;;;42.80;30.80;;;;;;;7.58;100.00;98850.47;106345;1285;64776;-78
2022/11/07 03:07:53;;;;;;;48.80;31.50;;;;;;;7.58;100.00;98852.39;106078;1269;59071;-78
2022/11/07 03:10:20;;;;;;;39.50;30.10;;;;;;;7.59;100.00;98854.84;106358;1284;58746;-78
2022/11/07 03:12:46;;;;;;;43.40;29.60;;;;;;;7.60;100.00;98854.08;106327;1278;65676;-78
2022/11/07 03:15:13;;;;;;;44.50;30.60;;;;;;;7.61;100.00;98856.48;106340;1286;60759;-77
2022/11/07 03:17:41;;;;;;;43.30;30.00;;;;;;;7.61;100.00;98852.26;106343;1282;64850;-78
2022/11/07 03:20:08;;;;;;;43.60;30.00;;;;;;;7.61;100.00;98854.87;106345;1290;58855;-77
2022/11/07 03:22:34;;;;;;;45.40;30.80;;;;;;;7.61;100.00;98856.48;106325;1278;58873;-77
2022/11/07 03:25:01;;;;;;;44.90;31.70;;;;;;;7.61;100.00;98863.36;106049;1290;65779;-78
2022/11/07 03:27:28;;;;;;;47.70;31.10;;;;;;;7.61;100.00;98866.37;106344;1286;60877;-78
2022/11/07 03:29:54;;;;;;;43.00;30.10;;;;;;;7.61;100.00;98861.79;106346;1285;64785;-78
2022/11/07 03:32:21;;;;;;;45.00;30.40;;;;;;;7.61;100.00;98860.38;106321;1285;58804;-78
2022/11/07 03:34:48;;;;;;;47.80;31.50;;;;;;;7.61;100.00;98858.06;106343;1285;58904;-77
2022/11/07 03:37:16;;;;;;;46.00;30.60;;;;;;;7.60;100.00;98857.05;106378;1285;66731;-78
2022/11/07 03:39:42;;;;;;;47.80;31.50;;;;;;;7.59;100.00;98861.56;106331;1284;59715;-76
2022/11/07 03:42:10;;;;;;;43.30;29.50;;;;;;;7.58;100.00;98861.44;106342;1285;63754;-77
2022/11/07 03:44:36;;;;;;;46.90;35.20;;;;;;;7.56;100.00;98861.89;106344;1285;58890;-77
2022/11/07 03:47:03;;;;;;;47.80;32.90;;;;;;;7.55;100.00;98862.80;106369;1278;59017;-77
2022/11/07 03:49:29;;;;;;;44.80;31.20;;;;;;;7.54;100.00;98860.23;106346;1286;66791;-77
2022/11/07 03:51:56;;;;;;;45.50;32.50;;;;;;;7.53;100.00;98855.68;106346;1284;59769;-77
2022/11/07 03:54:23;;;;;;;44.20;31.30;;;;;;;7.53;100.00;98860.80;106336;1285;64827;-76
2022/11/07 03:56:49;;;;;;;42.00;30.50;;;;;;;7.53;100.00;98865.08;106319;1285;58797;-77
2022/11/07 03:59:16;;;;;;;44.40;31.50;;;;;;;7.52;100.00;98863.90;106336;1278;60392;-76
2022/11/07 04:01:44;;;;;;;47.30;31.70;;;;;;;7.52;100.00;98863.33;106348;1278;64328;-78
2022/11/07 04:04:11;;;;;;;40.70;28.60;;;;;;;7.52;100.00;98864.59;106341;1284;68258;-78
2022/11/07 04:06:38;;;;;;;41.40;29.00;;;;;;;7.52;100.00;98869.02;106345;1278;64997;-77
2022/11/07 04:09:05;;;;;;;44.10;29.40;;;;;;;7.52;100.00;98868.48;106352;1286;58871;-76
2022/11/07 04:17:17;;;;;;;39.10;29.40;;;;;;;7.49;100.00;98870.40;106356;1284;60902;-77
2022/11/07 04:19:46;;;;;;;37.50;28.30;;;;;;;7.47;100.00;98859.20;106350;1285;64771;-77
2022/11/07 04:22:13;;;;;;;36.90;28.00;;;;;;;7.45;100.00;98857.69;106169;1286;217978;-77
2022/11/07 04:24:41;;;;;;;40.10;28.70;;;;;;;7.45;100.00;98854.17;106323;1284;59067;-77
2022/11/07 04:29:55;;;;;;;38.10;27.60;;;;;;;7.44;100.00;98856.52;106368;1284;61106;-78
2022/11/07 04:32:24;;;;;;;39.00;27.00;;;;;;;7.45;100.00;98859.49;106332;1285;63901;-78
2022/11/07 04:34:51;;;;;;;36.40;27.20;;;;;;;7.46;100.00;98859.06;106334;1285;58848;-77
2022/11/07 04:37:18;;;;;;;36.90;27.50;;;;;;;7.46;100.00;98860.67;106350;1286;59010;-78
2022/11/07 04:39:45;;;;;;;39.60;29.60;;;;;;;7.46;100.00;98864.37;106347;1278;66000;-78
2022/11/07 04:42:11;;;;;;;37.80;27.40;;;;;;;7.48;100.00;98866.92;106354;1283;60839;-77
2022/11/07 04:44:38;;;;;;;39.00;28.10;;;;;;;7.49;100.00;98864.95;106349;1293;64754;-77
2022/11/07 04:47:05;;;;;;;37.20;28.10;;;;;;;7.47;100.00;98866.24;106332;1285;59242;-77
2022/11/07 04:49:32;;;;;;;40.70;30.20;;;;;;;7.46;100.00;98870.02;106056;1290;58808;-77
2022/11/07 04:51:58;;;;;;;40.30;29.50;;;;;;;7.46;100.00;98867.53;106341;1278;66888;-77
2022/11/07 04:54:25;;;;;;;42.30;32.00;;;;;;;7.47;100.00;98864.36;106360;1285;60267;-77
2022/11/07 04:56:51;;;;;;;39.00;28.70;;;;;;;7.45;100.00;98866.36;106319;1286;65003;-78
2022/11/07 04:59:18;;;;;;;39.00;29.30;;;;;;;7.45;100.00;98865.52;106355;1286;58825;-78
2022/11/07 05:01:45;;;;;;;39.30;29.60;;;;;;;7.45;100.00;98865.88;106351;1286;59033;-77
2022/11/07 05:04:11;;;;;;;40.10;28.60;;;;;;;7.44;100.00;98865.23;106351;1286;67084;-77
2022/11/07 05:06:38;;;;;;;40.60;29.90;;;;;;;7.43;100.00;98865.98;106080;1286;59984;-77
2022/11/07 05:09:05;;;;;;;44.40;31.20;;;;;;;7.41;100.00;98862.73;106328;1285;65046;-77
2022/11/07 05:11:31;;;;;;;64.40;46.40;;;;;;;7.40;100.00;98862.60;106048;1291;58970;-77
2022/11/07 05:13:58;;;;;;;63.00;47.50;;;;;;;7.39;100.00;98864.64;106386;1285;58805;-78
2022/11/07 05:16:25;;;;;;;54.90;43.40;;;;;;;7.38;100.00;98869.30;106329;1284;65845;-77
2022/11/07 05:18:51;;;;;;;45.50;34.10;;;;;;;7.37;100.00;98866.48;106367;1278;58905;-78
2022/11/07 05:21:18;;;;;;;39.50;29.60;;;;;;;7.36;100.00;98870.06;106365;1284;63687;-76
2022/11/07 05:23:45;;;;;;;42.20;30.20;;;;;;;7.35;100.00;98871.02;106367;1285;58828;-78
2022/11/07 05:26:11;;;;;;;40.90;29.20;;;;;;;7.34;100.00;98873.94;106333;1292;58709;-76
2022/11/07 05:28:38;;;;;;;37.90;27.00;;;;;;;7.32;100.00;98879.34;106332;1278;66745;-77
2022/11/07 05:31:05;;;;;;;39.00;29.00;;;;;;;7.28;100.00;98875.66;106372;1278;60707;-77
2022/11/07 05:33:33;;;;;;;41.50;28.90;;;;;;;7.24;100.00;98877.28;106344;1284;63761;-78
2022/11/07 05:36:09;;;;;;;43.80;29.30;;;;;;;7.21;100.00;98882.05;106261;1288;59199;-77
2022/11/07 05:38:35;;;;;;;39.60;28.60;;;;;;;7.17;100.00;98883.31;106347;1281;58875;-78
2022/11/07 05:41:03;;;;;;;41.50;29.20;;;;;;;7.13;100.00;98893.58;106326;1285;66906;-77
2022/11/07 05:43:30;;;;;;;39.10;29.00;;;;;;;7.11;100.00;98895.29;106051;1284;61054;-77
2022/11/07 05:45:58;;;;;;;39.60;29.30;;;;;;;7.10;100.00;98901.38;106072;1281;64457;-76
2022/11/07 05:48:25;;;;;;;47.40;32.00;;;;;;;7.08;100.00;98900.40;106333;1292;58972;-83
2022/11/07 05:50:52;;;;;;;41.80;30.30;;;;;;;7.08;100.00;98903.10;106362;1285;58818;-84
2022/11/07 05:53:21;;;;;;;42.40;30.00;;;;;;;7.08;100.00;98905.90;106079;1294;64396;-82
2022/11/07 05:55:48;;;;;;;39.00;29.80;;;;;;;7.06;100.00;98905.45;106348;1284;60948;-82
2022/11/07 05:58:14;;;;;;;45.60;32.40;;;;;;;7.05;100.00;98910.84;106327;1292;64851;-84
2022/11/07 06:00:41;;;;;;;43.30;31.60;;;;;;;7.03;100.00;98918.34;106359;1286;58918;-87
2022/11/07 06:03:08;;;;;;;37.50;29.30;;;;;;;7.03;100.00;98919.58;106399;1285;58744;-87
2022/11/07 06:05:55;;;;;;;47.40;34.00;;;;;;;7.04;100.00;98927.64;105903;1285;66071;-79
2022/11/07 06:08:21;;;;;;;44.30;33.30;;;;;;;7.09;100.00;98933.07;106042;1288;60854;-79
2022/11/07 06:10:48;;;;;;;43.30;32.50;;;;;;;7.15;100.00;98931.66;106040;1296;64792;-81
2022/11/07 06:13:15;;;;;;;43.80;31.80;;;;;;;7.20;100.00;98930.50;106040;1288;59150;-82
2022/11/07 06:15:43;;;;;;;46.90;35.50;;;;;;;7.24;100.00;98930.63;106059;1288;58928;-74
2022/11/07 06:18:16;;;;;;;44.70;34.10;;;;;;;7.30;100.00;98931.91;105826;1294;66877;-74
2022/11/07 06:20:43;;;;;;;43.50;33.10;;;;;;;7.34;100.00;98930.79;106030;1289;59945;-74
2022/11/07 06:23:10;;;;;;;42.00;31.70;;;;;;;7.38;100.00;98936.23;105817;1293;64777;-73
2022/11/07 06:25:37;;;;;;;44.60;33.10;;;;;;;7.40;100.00;98936.66;106044;1288;58994;-73
2022/11/07 06:28:08;;;;;;;44.90;32.40;;;;;;;7.42;100.00;98942.91;105948;1284;60190;-74
2022/11/07 06:30:35;;;;;;;42.50;30.70;;;;;;;7.45;100.00;98945.06;106038;1281;67309;-73
2022/11/07 06:33:07;;;;;;;41.00;31.40;;;;;;;7.49;100.00;98951.94;106025;1288;59694;-73
2022/11/07 06:35:35;;;;;;;40.80;29.40;;;;;;;7.53;100.00;98954.88;106016;1288;64865;-74
2022/11/07 06:38:04;;;;;;;38.50;29.50;;;;;;;7.55;100.00;98954.21;105929;1275;59090;-72
2022/11/07 06:40:31;;;;;;;41.70;30.60;;;;;;;7.57;100.00;98953.77;106027;1275;58887;-72
2022/11/07 06:43:13;;;;;;;41.40;31.40;;;;;;;7.59;100.00;98951.71;106062;1288;67085;-72
2022/11/07 06:45:40;;;;;;;42.80;30.30;;;;;;;7.61;100.00;98951.05;106346;1285;59347;-73
2022/11/07 06:48:08;;;;;;;39.90;28.50;;;;;;;7.63;100.00;98951.31;106331;1285;64855;-73
2022/11/07 06:50:35;;;;;;;35.70;27.10;;;;;;;7.62;100.00;98951.55;106070;1281;58897;-73
2022/11/07 06:53:04;;;;;;;42.50;31.50;;;;;;;7.60;100.00;98952.69;106349;1278;59049;-73
2022/11/07 06:55:33;;;;;;;39.50;29.30;;;;;;;7.63;100.00;98951.50;106319;1285;75190;-73
2022/11/07 06:58:00;;;;;;;45.80;33.80;;;;;;;7.65;100.00;98949.59;106358;1284;59775;-73
2022/11/07 07:00:28;;;;;;;47.40;34.30;;;;;;;7.68;100.00;98948.18;106322;1285;63888;-71
2022/11/07 07:02:55;;;;;;;45.30;39.30;;;;;;;7.72;100.00;98945.14;106313;1278;58885;-73
2022/11/07 07:05:21;;;;;;;44.30;38.90;;;;;;;7.77;100.00;98947.68;106327;1276;58803;-73
2022/11/07 07:07:48;;;;;;;46.20;36.10;;;;;;;7.82;100.00;98946.73;106068;1295;65899;-73
2022/11/07 07:10:15;;;;;;;43.00;34.50;;;;;;;7.86;100.00;98944.19;106363;1285;60871;-73
2022/11/07 07:12:43;;;;;;;45.20;33.60;;;;;;;7.91;100.00;98944.77;106351;1285;64777;-73
2022/11/07 07:15:10;;;;;;;44.90;33.30;;;;;;;7.97;100.00;98947.98;106299;1292;58995;-73
2022/11/07 07:17:36;;;;;;;38.40;30.50;;;;;;;8.02;100.00;98951.08;106018;1289;58892;-72
2022/11/07 07:20:04;;;;;;;45.00;33.70;;;;;;;8.07;100.00;98947.92;106340;1285;65929;-73
2022/11/07 07:22:30;;;;;;;40.40;31.90;;;;;;;8.14;100.00;98946.98;106345;1284;59728;-74
2022/11/07 07:24:57;;;;;;;39.40;30.20;;;;;;;8.22;100.00;98950.61;106321;1285;64847;-73
2022/11/07 07:27:23;;;;;;;42.30;32.80;;;;;;;8.29;100.00;98955.48;106351;1278;59019;-73
2022/11/07 07:29:52;;;;;;;47.10;36.00;;;;;;;8.35;100.00;98963.30;106047;1284;58957;-73
2022/11/07 07:32:19;;;;;;;44.00;35.40;;;;;;;8.41;100.00;98963.02;106327;1278;66856;-74
2022/11/07 07:34:46;;;;;;;42.00;34.80;;;;;;;8.49;100.00;98963.08;106354;1284;59957;-73
2022/11/07 07:37:13;;;;;;;40.50;32.40;;;;;;;8.57;100.00;98964.34;106321;1285;63768;-73
2022/11/07 07:39:40;;;;;;;42.30;32.00;;;;;;;8.67;100.00;98966.44;106320;1285;58833;-73
2022/11/07 07:42:06;;;;;;;39.80;33.10;;;;;;;8.75;100.00;98968.93;106319;1279;59703;-73
2022/11/07 07:44:33;;;;;;;46.30;38.10;;;;;;;8.82;100.00;98971.73;106337;1277;67000;-71
2022/11/07 07:47:00;;;;;;;49.60;39.70;;;;;;;8.88;100.00;98975.48;106092;1276;68681;-73
2022/11/07 07:49:27;;;;;;;46.60;39.20;;;;;;;8.94;100.00;98973.13;106330;1278;64791;-74
2022/11/07 07:51:53;;;;;;;49.50;36.40;;;;;;;9.05;100.00;98972.66;106335;1284;58932;-73
2022/11/07 07:54:20;;;;;;;47.10;36.30;;;;;;;9.16;100.00;98969.11;106331;1286;59112;-73
2022/11/07 07:56:46;;;;;;;47.50;36.70;;;;;;;9.28;100.00;98968.38;106316;1285;66800;-73
2022/11/07 07:59:13;;;;;;;44.30;37.80;;;;;;;9.39;100.00;98959.71;106097;1292;61180;-72
2022/11/07 08:01:39;;;;;;;46.80;34.70;;;;;;;9.48;100.00;98961.62;106331;1285;63828;-73
2022/11/07 08:04:06;;;;;;;44.70;34.20;;;;;;;9.57;100.00;98961.42;106321;1285;58957;-73
2022/11/07 08:06:34;;;;;;;42.70;31.90;;;;;;;9.65;100.00;98960.55;106286;1286;58758;-74
2022/11/07 08:09:00;;;;;;;39.50;32.00;;;;;;;9.71;100.00;98959.31;106318;1285;66788;-74
2022/11/07 08:11:27;;;;;;;41.20;31.60;;;;;;;9.78;100.00;98957.61;106326;1284;59655;-73
2022/11/07 08:13:54;;;;;;;39.80;30.00;;;;;;;9.84;100.00;98957.05;106329;1285;63503;-73
2022/11/07 08:16:21;;;;;;;40.70;31.40;;;;;;;9.90;100.00;98962.70;106332;1285;58841;-73
2022/11/07 08:18:47;;;;;;;38.60;30.20;;;;;;;9.98;100.00;98964.88;106328;1285;58976;-73
2022/11/07 08:21:14;;;;;;;41.30;31.50;;;;;;;10.05;100.00;98973.96;106371;1284;64304;-73
2022/11/07 08:23:41;;;;;;;41.10;31.40;;;;;;;10.11;100.00;98975.02;106331;1284;59658;-73
2022/11/07 08:26:07;;;;;;;40.70;30.90;;;;;;;10.13;100.00;98978.07;106323;1276;64818;-73
2022/11/07 08:28:34;;;;;;;40.20;32.40;;;;;;;10.14;100.00;98978.16;106342;1282;58910;-72
2022/11/07 08:31:07;;;;;;;39.70;31.20;;;;;;;10.17;100.00;98979.62;106339;1285;58992;-73
2022/11/07 08:33:34;;;;;;;36.50;29.80;;;;;;;10.21;100.00;98980.41;106322;1278;73983;-73
2022/11/07 08:36:03;;;;;;;36.90;27.50;;;;;;;10.25;100.00;98986.14;106353;1285;61029;-72
2022/11/07 08:38:31;;;;;;;32.70;25.80;;;;;;;10.30;100.00;98987.11;106341;1285;65026;-72
2022/11/07 08:40:58;;;;;;;30.60;24.30;;;;;;;10.36;100.00;98987.41;106317;1285;58809;-73
2022/11/07 08:43:25;;;;;;;35.60;23.10;;;;;;;10.42;100.00;98991.27;106011;1288;58934;-73
2022/11/07 08:45:53;;;;;;;29.60;23.40;;;;;;;10.47;100.00;98993.77;106333;1285;67226;-73
2022/11/07 08:48:20;;;;;;;26.60;20.30;;;;;;;10.50;100.00;98996.08;106321;1277;59680;-74
2022/11/07 08:50:52;;;;;;;27.70;20.10;;;;;;;10.49;100.00;99001.46;106343;1285;63835;-74
2022/11/07 08:53:19;;;;;;;21.40;16.10;;;;;;;10.49;100.00;99008.05;106305;1286;58949;-73
2022/11/07 08:55:45;;;;;;;20.10;14.20;;;;;;;10.50;100.00;99008.30;106317;1285;58756;-72
2022/11/07 08:58:13;;;;;;;16.00;12.30;;;;;;;10.52;100.00;99011.20;106325;1285;75612;-73
2022/11/07 09:00:41;;;;;;;15.60;12.40;;;;;;;10.56;100.00;99021.27;106326;1285;60783;-73
2022/11/07 09:03:10;;;;;;;14.80;10.20;;;;;;;10.61;100.00;99018.09;106305;1279;63746;-73
2022/11/07 09:05:38;;;;;;;10.80;7.00;;;;;;;10.68;100.00;99019.05;106364;1285;58987;-74
2022/11/07 09:08:05;;;;;;;11.60;6.80;;;;;;;10.73;100.00;99017.25;106335;1286;58902;-74
2022/11/07 09:10:31;;;;;;;9.80;5.90;;;;;;;10.81;100.00;99016.54;106349;1278;66774;-74
2022/11/07 09:12:58;;;;;;;6.20;4.90;;;;;;;10.88;100.00;99012.52;106353;1285;60798;-73
2022/11/07 09:15:25;;;;;;;6.60;4.50;;;;;;;10.94;100.00;99014.23;106331;1286;65022;-73
2022/11/07 09:17:52;;;;;;;6.10;4.60;;;;;;;11.01;100.00;99014.53;106346;1285;58949;-74
2022/11/07 09:20:19;;;;;;;8.20;5.40;;;;;;;11.05;100.00;99017.57;106317;1285;58874;-72
2022/11/07 09:22:46;;;;;;;7.20;5.00;;;;;;;11.08;100.00;99020.05;106306;1278;66798;-72
2022/11/07 09:25:12;;;;;;;8.00;5.00;;;;;;;11.09;100.00;99017.30;106348;1285;60815;-73
2022/11/07 09:27:39;;;;;;;6.70;4.70;;;;;;;11.10;100.00;99015.30;106323;1278;64837;-73
2022/11/07 09:30:07;;;;;;;7.00;4.90;;;;;;;11.12;100.00;99016.08;106058;1281;58904;-73
2022/11/07 09:32:33;;;;;;;6.60;4.40;;;;;;;11.13;100.00;99017.77;106019;1289;59252;-72
2022/11/07 09:35:00;;;;;;;7.60;4.50;;;;;;;11.15;100.00;99017.22;106320;1278;65716;-72
2022/11/07 09:37:27;;;;;;;7.20;4.70;;;;;;;11.19;100.00;99016.43;106358;1285;60849;-74
2022/11/07 09:39:53;;;;;;;5.40;4.30;;;;;;;11.24;100.00;99019.70;106347;1279;65180;-73
2022/11/07 09:42:44;;;;;;;7.70;4.00;;;;;;;11.28;100.00;99015.11;106327;1285;58841;-73
2022/11/07 09:45:12;;;;;;;;;;;;;;;11.35;100.00;99014.23;106383;1276;58872;-73
2022/11/07 09:47:53;;;;;;;6.50;4.70;;;;;;;11.42;100.00;99013.64;106335;1278;67014;-73
2022/11/07 09:50:37;;;;;;;8.50;4.00;;;;;;;11.53;100.00;99019.45;106250;1281;61081;-73
2022/11/07 09:53:09;;;;;;;7.50;4.10;;;;;;;11.64;100.00;99020.72;106325;1285;73823;-74
2022/11/07 09:55:41;;;;;;;6.20;4.10;;;;;;;11.74;100.00;99020.05;106337;1285;58878;-73
2022/11/07 09:58:21;;;;;;;5.50;3.90;;;;;;;11.82;100.00;99021.98;106319;1285;58828;-73
2022/11/07 10:00:47;;;;;;;9.50;4.80;;;;;;;11.89;100.00;99021.19;106336;1285;67469;-73
2022/11/07 10:03:14;;;;;;;5.90;4.10;;;;;;;11.95;100.00;99024.67;106353;1278;58996;-72
2022/11/07 10:05:58;;;;;;;4.90;4.20;;;;;;;12.01;100.00;99026.88;106324;1285;65221;-73
2022/11/07 10:08:24;;;;;;;6.20;4.20;;;;;;;12.07;100.00;99028.73;106291;1278;58995;-73
2022/11/07 10:10:57;;;;;;;5.70;4.60;;;;;;;12.10;100.00;99025.89;106341;1284;59127;-73
2022/11/07 10:13:51;;;;;;;4.90;3.70;;;;;;;12.13;100.00;99026.36;106327;1285;67584;-74
2022/11/07 10:16:39;;;;;;;6.90;4.00;;;;;;;12.15;100.00;99026.41;106315;1285;61221;-73
2022/11/07 10:19:21;;;;;;;5.20;3.30;;;;;;;12.18;100.00;99031.36;106322;1285;74280;-73
2022/11/07 10:22:00;;;;;;;7.20;3.90;;;;;;;12.15;100.00;99031.92;106209;1288;58903;-73
2022/11/07 10:24:38;;;;;;;4.00;3.60;;;;;;;12.12;100.00;99028.23;106335;1285;59297;-74
2022/11/07 10:27:10;;;;;;;6.60;3.50;;;;;;;12.11;100.00;99031.37;106335;1285;67317;-74
2022/11/07 10:29:50;;;;;;;4.50;3.20;;;;;;;12.11;100.00;99036.48;106330;1278;69940;-73
2022/11/07 10:32:40;;;;;;;5.40;3.00;;;;;;;12.10;100.00;99035.67;106324;1284;65205;-74
2022/11/07 10:35:30;;;;;;;5.40;3.70;;;;;;;12.09;100.00;99040.05;106336;1278;59094;-74
2022/11/07 10:37:59;;;;;;;5.30;3.90;;;;;;;12.08;100.00;99042.55;106337;1278;60337;-72
2022/11/07 10:40:40;;;;;;;5.30;3.20;;;;;;;12.08;100.00;99043.31;106352;1284;65993;-74
2022/11/07 10:43:18;;;;;;;6.20;3.50;;;;;;;12.05;100.00;99041.21;106346;1285;60968;-73
2022/11/07 10:45:45;;;;;;;14.80;3.80;;;;;;;12.06;100.00;99039.17;106330;1285;72405;-74
2022/11/07 10:48:13;;;;;;;6.10;3.00;;;;;;;12.04;100.00;99040.73;106320;1278;59187;-73
2022/11/07 10:50:39;;;;;;;6.70;3.00;;;;;;;12.04;100.00;99044.61;106347;1285;58943;-73
2022/11/07 10:53:08;;;;;;;5.40;2.40;;;;;;;12.09;100.00;99045.70;106347;1278;66026;-74
2022/11/07 10:55:43;;;;;;;4.50;2.80;;;;;;;12.12;100.00;99040.15;106334;1279;60088;-73
2022/11/07 10:58:22;;;;;;;6.10;3.30;;;;;;;12.19;100.00;99039.29;106330;1285;63644;-73
2022/11/07 11:01:01;;;;;;;8.70;3.70;;;;;;;12.23;100.00;99038.47;106341;1285;60858;-74
2022/11/07 11:03:31;;;;;;;3.80;3.10;;;;;;;12.23;100.00;99040.23;106343;1285;58908;-74
2022/11/07 11:06:19;;;;;;;4.10;3.50;;;;;;;12.26;100.00;99037.70;106332;1286;67022;-74
2022/11/07 11:08:47;;;;;;;6.00;3.50;;;;;;;12.27;100.00;99041.55;106338;1277;60037;-73
2022/11/07 11:11:20;;;;;;;4.60;3.50;;;;;;;12.28;100.00;99043.43;106097;1288;62941;-72
2022/11/07 11:13:48;;;;;;;4.40;3.40;;;;;;;12.26;100.00;99037.85;106323;1285;58827;-74
2022/11/07 11:16:23;;;;;;;4.20;2.90;;;;;;;12.25;100.00;99037.92;106337;1285;59171;-73
2022/11/07 11:18:53;;;;;;;4.00;3.10;;;;;;;12.25;100.00;99038.12;106075;1288;75582;-73
2022/11/07 11:21:21;;;;;;;5.20;4.40;;;;;;;12.26;100.00;99039.87;106315;1275;66584;-72
2022/11/07 11:23:48;;;;;;;3.50;3.10;;;;;;;12.25;100.00;99042.08;106348;1285;62555;-73
2022/11/07 11:26:47;;;;;;;4.20;3.70;;;;;;;12.25;100.00;99039.75;106317;1285;59294;-74
2022/11/07 11:29:26;;;;;;;4.10;3.30;;;;;;;12.27;100.00;99039.03;105740;1294;59069;-75
2022/11/07 11:31:56;;;;;;;4.40;3.50;;;;;;;12.23;100.00;99047.34;105699;1286;67168;-74